sensor_id;sensor_type;location;lat;lon;timestamp;pressure;altitude;pressure_sealevel;temperature;humidity
60479;BME280;46321;48.398;11.754;2023-03-19T00:01:39;96223.50;;;8.21;66.73
60479;BME280;46321;48.398;11.754;2023-03-19T00:04:04;96222.53;;;8.14;66.37
60479;BME280;46321;48.398;11.754;2023-03-19T00:06:30;96228.09;;;8.11;66.62
60479;BME280;46321;48.398;11.754;2023-03-19T00:08:55;96228.28;;;8.09;66.95
60479;BME280;46321;48.398;11.754;2023-03-19T00:11:20;96230.09;;;8.09;66.49
60479;BME280;46321;48.398;11.754;2023-03-19T00:13:46;96237.19;;;8.08;66.36
60479;BME280;46321;48.398;11.754;2023-03-19T00:16:11;96233.72;;;8.08;66.62
60479;BME280;46321;48.398;11.754;2023-03-19T00:18:37;96227.81;;;8.06;66.67
60479;BME280;46321;48.398;11.754;2023-03-19T00:21:02;96218.25;;;8.05;66.65
60479;BME280;46321;48.398;11.754;2023-03-19T00:23:28;96218.75;;;8.08;66.52
60479;BME280;46321;48.398;11.754;2023-03-19T00:25:53;96217.44;;;8.04;66.70
60479;BME280;46321;48.398;11.754;2023-03-19T00:28:19;96219.25;;;7.95;67.31
60479;BME280;46321;48.398;11.754;2023-03-19T00:30:44;96228.13;;;7.94;67.18
60479;BME280;46321;48.398;11.754;2023-03-19T00:33:09;96231.56;;;7.86;67.04
60479;BME280;46321;48.398;11.754;2023-03-19T00:35:35;96226.16;;;7.79;67.16
60479;BME280;46321;48.398;11.754;2023-03-19T00:38:00;96234.06;;;7.88;67.16
60479;BME280;46321;48.398;11.754;2023-03-19T00:40:25;96234.72;;;7.90;67.22
60479;BME280;46321;48.398;11.754;2023-03-19T00:42:51;96240.00;;;7.90;67.11
60479;BME280;46321;48.398;11.754;2023-03-19T00:45:16;96237.69;;;7.87;66.98
60479;BME280;46321;48.398;11.754;2023-03-19T00:47:42;96241.97;;;7.88;66.82
60479;BME280;46321;48.398;11.754;2023-03-19T00:50:08;96243.78;;;7.87;67.74
60479;BME280;46321;48.398;11.754;2023-03-19T00:52:33;96245.75;;;7.85;67.88
60479;BME280;46321;48.398;11.754;2023-03-19T00:54:59;96239.16;;;7.81;67.94
60479;BME280;46321;48.398;11.754;2023-03-19T00:57:24;96248.88;;;7.81;67.45
60479;BME280;46321;48.398;11.754;2023-03-19T00:59:50;96249.19;;;7.77;67.76
60479;BME280;46321;48.398;11.754;2023-03-19T01:02:15;96252.19;;;7.74;67.73
60479;BME280;46321;48.398;11.754;2023-03-19T01:04:41;96249.19;;;7.77;67.67
60479;BME280;46321;48.398;11.754;2023-03-19T01:07:06;96242.28;;;7.68;67.83
60479;BME280;46321;48.398;11.754;2023-03-19T01:09:32;96248.03;;;7.63;67.85
60479;BME280;46321;48.398;11.754;2023-03-19T01:11:57;96246.25;;;7.64;67.40
60479;BME280;46321;48.398;11.754;2023-03-19T01:14:23;96247.53;;;7.60;67.50
60479;BME280;46321;48.398;11.754;2023-03-19T01:16:48;96246.22;;;7.55;67.29
60479;BME280;46321;48.398;11.754;2023-03-19T01:19:14;96246.38;;;7.54;67.22
60479;BME280;46321;48.398;11.754;2023-03-19T01:21:40;96249.00;;;7.54;67.11
60479;BME280;46321;48.398;11.754;2023-03-19T01:24:10;96247.88;;;7.48;67.51
60479;BME280;46321;48.398;11.754;2023-03-19T01:26:35;96247.16;;;7.38;67.58
60479;BME280;46321;48.398;11.754;2023-03-19T01:29:01;96253.44;;;7.37;67.38
60479;BME280;46321;48.398;11.754;2023-03-19T01:31:26;96240.22;;;7.28;68.19
60479;BME280;46321;48.398;11.754;2023-03-19T01:33:51;96249.13;;;7.27;67.99
60479;BME280;46321;48.398;11.754;2023-03-19T01:36:16;96238.72;;;7.17;67.54
60479;BME280;46321;48.398;11.754;2023-03-19T01:38:42;96246.13;;;7.14;68.04
60479;BME280;46321;48.398;11.754;2023-03-19T01:41:07;96248.25;;;7.10;68.38
60479;BME280;46321;48.398;11.754;2023-03-19T01:43:33;96247.41;;;7.09;68.75
60479;BME280;46321;48.398;11.754;2023-03-19T01:46:26;96251.53;;;7.12;69.03
60479;BME280;46321;48.398;11.754;2023-03-19T01:49:04;96252.50;;;7.03;69.12
60479;BME280;46321;48.398;11.754;2023-03-19T01:51:34;96246.09;;;7.05;68.36
60479;BME280;46321;48.398;11.754;2023-03-19T01:54:13;96245.25;;;6.96;69.03
60479;BME280;46321;48.398;11.754;2023-03-19T01:56:40;96243.53;;;6.87;69.05
60479;BME280;46321;48.398;11.754;2023-03-19T01:59:28;96247.81;;;6.88;69.23
60479;BME280;46321;48.398;11.754;2023-03-19T02:02:06;96256.03;;;6.85;69.32
60479;BME280;46321;48.398;11.754;2023-03-19T02:04:35;96254.53;;;6.82;69.41
60479;BME280;46321;48.398;11.754;2023-03-19T02:07:02;96259.13;;;6.80;69.36
60479;BME280;46321;48.398;11.754;2023-03-19T02:09:28;96264.41;;;6.80;69.12
60479;BME280;46321;48.398;11.754;2023-03-19T02:11:54;96259.38;;;6.60;69.48
60479;BME280;46321;48.398;11.754;2023-03-19T02:14:20;96250.16;;;6.56;69.42
60479;BME280;46321;48.398;11.754;2023-03-19T02:16:46;96249.16;;;6.57;69.46
60479;BME280;46321;48.398;11.754;2023-03-19T02:19:16;96256.22;;;6.57;69.48
60479;BME280;46321;48.398;11.754;2023-03-19T02:21:43;96256.16;;;6.48;69.11
60479;BME280;46321;48.398;11.754;2023-03-19T02:24:22;96260.28;;;6.51;69.80
60479;BME280;46321;48.398;11.754;2023-03-19T02:26:49;96257.28;;;6.46;70.38
60479;BME280;46321;48.398;11.754;2023-03-19T02:29:15;96259.59;;;6.40;70.21
60479;BME280;46321;48.398;11.754;2023-03-19T02:31:41;96268.47;;;6.48;69.76
60479;BME280;46321;48.398;11.754;2023-03-19T02:36:56;96270.16;;;6.49;69.65
60479;BME280;46321;48.398;11.754;2023-03-19T02:39:54;96263.88;;;6.50;69.40
60479;BME280;46321;48.398;11.754;2023-03-19T02:42:23;96272.09;;;6.47;69.47
60479;BME280;46321;48.398;11.754;2023-03-19T02:44:49;96265.13;;;6.37;70.18
60479;BME280;46321;48.398;11.754;2023-03-19T02:47:15;96264.50;;;6.44;69.92
60479;BME280;46321;48.398;11.754;2023-03-19T02:49:41;96269.06;;;6.33;70.46
60479;BME280;46321;48.398;11.754;2023-03-19T02:52:06;96269.22;;;6.32;71.13
60479;BME280;46321;48.398;11.754;2023-03-19T02:54:31;96264.47;;;6.35;70.92
60479;BME280;46321;48.398;11.754;2023-03-19T02:56:57;96269.56;;;6.37;70.80
60479;BME280;46321;48.398;11.754;2023-03-19T02:59:22;96262.00;;;6.34;70.63
60479;BME280;46321;48.398;11.754;2023-03-19T03:01:47;96255.25;;;6.31;70.41
60479;BME280;46321;48.398;11.754;2023-03-19T03:04:13;96250.28;;;6.28;70.08
60479;BME280;46321;48.398;11.754;2023-03-19T03:06:40;96258.53;;;6.33;70.27
60479;BME280;46321;48.398;11.754;2023-03-19T03:09:06;96258.84;;;6.30;69.98
60479;BME280;46321;48.398;11.754;2023-03-19T03:11:31;96263.81;;;6.33;70.31
60479;BME280;46321;48.398;11.754;2023-03-19T03:13:56;96275.94;;;6.34;70.14
60479;BME280;46321;48.398;11.754;2023-03-19T03:16:21;96270.34;;;6.29;70.62
60479;BME280;46321;48.398;11.754;2023-03-19T03:18:47;96268.69;;;6.28;70.74
60479;BME280;46321;48.398;11.754;2023-03-19T03:21:12;96269.97;;;6.24;71.67
60479;BME280;46321;48.398;11.754;2023-03-19T03:23:37;96269.09;;;6.15;71.92
60479;BME280;46321;48.398;11.754;2023-03-19T03:26:03;96269.25;;;6.13;71.93
60479;BME280;46321;48.398;11.754;2023-03-19T03:28:28;96269.38;;;6.12;71.73
60479;BME280;46321;48.398;11.754;2023-03-19T03:30:58;96276.00;;;6.16;71.09
60479;BME280;46321;48.398;11.754;2023-03-19T03:33:24;96281.09;;;6.17;71.06
60479;BME280;46321;48.398;11.754;2023-03-19T03:35:49;96285.38;;;6.18;71.01
60479;BME280;46321;48.398;11.754;2023-03-19T03:38:15;96291.28;;;6.21;71.08
60479;BME280;46321;48.398;11.754;2023-03-19T03:40:40;96301.00;;;6.20;70.88
60479;BME280;46321;48.398;11.754;2023-03-19T03:43:06;96291.63;;;6.17;71.58
60479;BME280;46321;48.398;11.754;2023-03-19T03:45:31;96297.94;;;6.06;72.48
60479;BME280;46321;48.398;11.754;2023-03-19T03:47:57;96296.41;;;6.04;72.45
60479;BME280;46321;48.398;11.754;2023-03-19T03:50:22;96299.31;;;6.01;72.19
60479;BME280;46321;48.398;11.754;2023-03-19T03:52:47;96301.41;;;6.07;72.16
60479;BME280;46321;48.398;11.754;2023-03-19T03:55:13;96303.78;;;6.00;72.17
60479;BME280;46321;48.398;11.754;2023-03-19T03:57:38;96306.66;;;6.07;71.57
60479;BME280;46321;48.398;11.754;2023-03-19T04:00:04;96310.16;;;5.98;72.08
60479;BME280;46321;48.398;11.754;2023-03-19T04:02:29;96309.75;;;5.92;72.24
60479;BME280;46321;48.398;11.754;2023-03-19T04:04:55;96302.09;;;5.81;72.37
60479;BME280;46321;48.398;11.754;2023-03-19T04:07:20;96301.28;;;5.80;72.15
60479;BME280;46321;48.398;11.754;2023-03-19T04:09:45;96295.47;;;5.58;73.06
60479;BME280;46321;48.398;11.754;2023-03-19T04:12:14;96305.16;;;5.40;73.26
60479;BME280;46321;48.398;11.754;2023-03-19T04:14:39;96300.19;;;5.36;73.71
60479;BME280;46321;48.398;11.754;2023-03-19T04:17:04;96301.97;;;5.64;72.28
60479;BME280;46321;48.398;11.754;2023-03-19T04:19:30;96323.56;;;5.76;72.03
60479;BME280;46321;48.398;11.754;2023-03-19T04:21:56;96325.38;;;5.76;72.15
60479;BME280;46321;48.398;11.754;2023-03-19T04:24:21;96326.78;;;5.70;72.67
60479;BME280;46321;48.398;11.754;2023-03-19T04:26:47;96318.19;;;5.78;72.18
60479;BME280;46321;48.398;11.754;2023-03-19T04:29:13;96318.19;;;5.78;72.54
60479;BME280;46321;48.398;11.754;2023-03-19T04:31:39;96319.31;;;5.75;72.49
60479;BME280;46321;48.398;11.754;2023-03-19T04:34:04;96326.72;;;5.80;72.52
60479;BME280;46321;48.398;11.754;2023-03-19T04:36:29;96326.94;;;5.68;72.76
60479;BME280;46321;48.398;11.754;2023-03-19T04:38:55;96320.25;;;5.74;72.71
60479;BME280;46321;48.398;11.754;2023-03-19T04:41:20;96331.88;;;5.71;73.04
60479;BME280;46321;48.398;11.754;2023-03-19T04:43:46;96331.19;;;5.69;73.08
60479;BME280;46321;48.398;11.754;2023-03-19T04:46:11;96327.47;;;5.72;72.65
60479;BME280;46321;48.398;11.754;2023-03-19T04:48:37;96333.63;;;5.81;72.39
60479;BME280;46321;48.398;11.754;2023-03-19T04:51:04;96329.19;;;5.81;72.72
60479;BME280;46321;48.398;11.754;2023-03-19T04:53:32;96318.19;;;5.78;72.88
60479;BME280;46321;48.398;11.754;2023-03-19T04:55:58;96323.28;;;5.79;72.99
60479;BME280;46321;48.398;11.754;2023-03-19T04:58:23;96327.69;;;5.79;73.42
60479;BME280;46321;48.398;11.754;2023-03-19T05:00:48;96334.91;;;5.77;73.40
60479;BME280;46321;48.398;11.754;2023-03-19T05:03:14;96342.84;;;5.85;73.12
60479;BME280;46321;48.398;11.754;2023-03-19T05:05:39;96344.19;;;5.89;72.87
60479;BME280;46321;48.398;11.754;2023-03-19T05:08:04;96333.56;;;5.91;73.17
60479;BME280;46321;48.398;11.754;2023-03-19T05:10:30;96325.28;;;5.86;73.54
60479;BME280;46321;48.398;11.754;2023-03-19T05:12:56;96324.34;;;5.87;73.30
60479;BME280;46321;48.398;11.754;2023-03-19T05:15:21;96342.28;;;5.91;73.58
60479;BME280;46321;48.398;11.754;2023-03-19T05:17:47;96348.56;;;5.99;73.04
60479;BME280;46321;48.398;11.754;2023-03-19T05:20:12;96344.31;;;5.98;73.31
60479;BME280;46321;48.398;11.754;2023-03-19T05:22:38;96338.22;;;5.97;73.17
60479;BME280;46321;48.398;11.754;2023-03-19T05:25:03;96340.78;;;5.89;73.86
60479;BME280;46321;48.398;11.754;2023-03-19T05:27:29;96346.84;;;5.89;74.03
60479;BME280;46321;48.398;11.754;2023-03-19T05:29:54;96361.63;;;5.90;73.93
60479;BME280;46321;48.398;11.754;2023-03-19T05:32:19;96371.25;;;6.00;73.34
60479;BME280;46321;48.398;11.754;2023-03-19T05:34:45;96367.19;;;6.05;73.42
60479;BME280;46321;48.398;11.754;2023-03-19T05:37:10;96380.66;;;6.02;73.27
60479;BME280;46321;48.398;11.754;2023-03-19T05:39:36;96367.63;;;6.01;73.74
60479;BME280;46321;48.398;11.754;2023-03-19T05:42:01;96374.72;;;6.00;73.53
60479;BME280;46321;48.398;11.754;2023-03-19T05:44:26;96372.09;;;6.00;73.26
60479;BME280;46321;48.398;11.754;2023-03-19T05:46:52;96377.88;;;6.04;73.27
60479;BME280;46321;48.398;11.754;2023-03-19T05:49:17;96378.81;;;6.03;73.01
60479;BME280;46321;48.398;11.754;2023-03-19T05:51:42;96385.50;;;6.07;73.45
60479;BME280;46321;48.398;11.754;2023-03-19T05:54:07;96385.50;;;6.07;73.16
60479;BME280;46321;48.398;11.754;2023-03-19T05:56:33;96391.56;;;6.07;73.36
60479;BME280;46321;48.398;11.754;2023-03-19T05:58:58;96396.19;;;6.14;73.50
60479;BME280;46321;48.398;11.754;2023-03-19T06:01:24;96398.31;;;6.10;73.36
60479;BME280;46321;48.398;11.754;2023-03-19T06:03:49;96401.94;;;6.09;73.59
60479;BME280;46321;48.398;11.754;2023-03-19T06:06:14;96407.03;;;6.11;73.46
60479;BME280;46321;48.398;11.754;2023-03-19T06:08:40;96403.97;;;6.15;73.08
60479;BME280;46321;48.398;11.754;2023-03-19T06:11:06;96412.19;;;6.21;73.04
60479;BME280;46321;48.398;11.754;2023-03-19T06:13:32;96420.78;;;6.23;73.35
60479;BME280;46321;48.398;11.754;2023-03-19T06:15:58;96425.06;;;6.24;73.06
60479;BME280;46321;48.398;11.754;2023-03-19T06:18:23;96435.19;;;6.18;73.30
60479;BME280;46321;48.398;11.754;2023-03-19T06:20:48;96433.22;;;6.21;73.63
60479;BME280;46321;48.398;11.754;2023-03-19T06:23:14;96449.91;;;6.29;73.06
60479;BME280;46321;48.398;11.754;2023-03-19T06:25:39;96448.94;;;6.30;73.00
60479;BME280;46321;48.398;11.754;2023-03-19T06:28:05;96441.59;;;6.34;73.11
60479;BME280;46321;48.398;11.754;2023-03-19T06:30:31;96438.38;;;6.40;73.11
60479;BME280;46321;48.398;11.754;2023-03-19T06:32:56;96436.72;;;6.39;73.29
60479;BME280;46321;48.398;11.754;2023-03-19T06:35:22;96441.06;;;6.49;73.23
60479;BME280;46321;48.398;11.754;2023-03-19T06:37:47;96441.31;;;6.56;73.10
60479;BME280;46321;48.398;11.754;2023-03-19T06:40:13;96434.59;;;6.61;73.19
60479;BME280;46321;48.398;11.754;2023-03-19T06:42:38;96440.91;;;6.69;73.04
60479;BME280;46321;48.398;11.754;2023-03-19T06:45:05;96440.28;;;6.75;72.69
60479;BME280;46321;48.398;11.754;2023-03-19T06:47:31;96442.75;;;6.76;72.88
60479;BME280;46321;48.398;11.754;2023-03-19T06:49:56;96452.16;;;6.79;72.91
60479;BME280;46321;48.398;11.754;2023-03-19T06:52:22;96453.06;;;6.88;72.60
60479;BME280;46321;48.398;11.754;2023-03-19T06:54:47;96450.63;;;6.95;72.48
60479;BME280;46321;48.398;11.754;2023-03-19T06:57:13;96447.03;;;6.96;73.08
60479;BME280;46321;48.398;11.754;2023-03-19T06:59:38;96445.97;;;7.07;72.60
60479;BME280;46321;48.398;11.754;2023-03-19T07:02:03;96458.66;;;7.12;72.96
60479;BME280;46321;48.398;11.754;2023-03-19T07:04:29;96466.78;;;7.18;72.78
60479;BME280;46321;48.398;11.754;2023-03-19T07:06:54;96465.31;;;7.24;72.96
60479;BME280;46321;48.398;11.754;2023-03-19T07:09:20;96479.06;;;7.09;74.32
60479;BME280;46321;48.398;11.754;2023-03-19T07:11:45;96473.88;;;7.26;73.66
60479;BME280;46321;48.398;11.754;2023-03-19T07:14:10;96470.59;;;7.24;74.08
60479;BME280;46321;48.398;11.754;2023-03-19T07:16:36;96478.56;;;7.32;73.70
60479;BME280;46321;48.398;11.754;2023-03-19T07:19:01;96479.09;;;7.44;73.30
60479;BME280;46321;48.398;11.754;2023-03-19T07:21:27;96477.88;;;7.57;73.11
60479;BME280;46321;48.398;11.754;2023-03-19T07:23:53;96478.25;;;7.71;72.83
60479;BME280;46321;48.398;11.754;2023-03-19T07:26:18;96489.50;;;7.81;73.09
60479;BME280;46321;48.398;11.754;2023-03-19T07:28:43;96489.53;;;7.89;72.64
60479;BME280;46321;48.398;11.754;2023-03-19T07:31:09;96499.78;;;7.93;72.65
60479;BME280;46321;48.398;11.754;2023-03-19T07:33:34;96509.28;;;7.85;72.90
60479;BME280;46321;48.398;11.754;2023-03-19T07:36:00;96512.19;;;8.09;72.41
60479;BME280;46321;48.398;11.754;2023-03-19T07:38:25;96520.34;;;8.24;72.41
60479;BME280;46321;48.398;11.754;2023-03-19T07:40:51;96523.19;;;8.39;71.78
60479;BME280;46321;48.398;11.754;2023-03-19T07:43:16;96532.44;;;8.52;71.57
60479;BME280;46321;48.398;11.754;2023-03-19T07:45:42;96529.88;;;8.68;71.22
60479;BME280;46321;48.398;11.754;2023-03-19T07:48:07;96530.88;;;8.84;71.45
60479;BME280;46321;48.398;11.754;2023-03-19T07:50:33;96532.88;;;8.99;71.35
60479;BME280;46321;48.398;11.754;2023-03-19T07:52:58;96525.47;;;9.02;71.34
60479;BME280;46321;48.398;11.754;2023-03-19T07:55:24;96533.19;;;9.21;71.14
60479;BME280;46321;48.398;11.754;2023-03-19T07:57:49;96535.84;;;9.29;70.99
60479;BME280;46321;48.398;11.754;2023-03-19T08:00:15;96534.69;;;9.40;70.28
60479;BME280;46321;48.398;11.754;2023-03-19T08:02:41;96536.16;;;9.51;69.88
60479;BME280;46321;48.398;11.754;2023-03-19T08:05:07;96548.69;;;9.57;69.70
60479;BME280;46321;48.398;11.754;2023-03-19T08:07:33;96550.84;;;9.62;69.68
60479;BME280;46321;48.398;11.754;2023-03-19T08:09:59;96547.69;;;9.67;69.53
60479;BME280;46321;48.398;11.754;2023-03-19T08:12:24;96551.16;;;9.76;69.59
60479;BME280;46321;48.398;11.754;2023-03-19T08:14:50;96548.00;;;9.80;69.38
60479;BME280;46321;48.398;11.754;2023-03-19T08:17:15;96547.31;;;9.87;68.88
60479;BME280;46321;48.398;11.754;2023-03-19T08:19:41;96542.22;;;9.85;69.06
60479;BME280;46321;48.398;11.754;2023-03-19T08:22:07;96544.66;;;9.95;68.76
60479;BME280;46321;48.398;11.754;2023-03-19T08:24:32;96544.78;;;10.02;69.04
60479;BME280;46321;48.398;11.754;2023-03-19T08:26:57;96541.59;;;10.15;68.56
60479;BME280;46321;48.398;11.754;2023-03-19T08:29:23;96544.38;;;10.22;68.44
60479;BME280;46321;48.398;11.754;2023-03-19T08:31:50;96537.56;;;10.36;67.94
60479;BME280;46321;48.398;11.754;2023-03-19T08:34:16;96543.16;;;10.41;68.34
60479;BME280;46321;48.398;11.754;2023-03-19T08:36:41;96550.91;;;10.51;68.60
60479;BME280;46321;48.398;11.754;2023-03-19T08:39:06;96556.53;;;10.56;68.15
60479;BME280;46321;48.398;11.754;2023-03-19T08:41:31;96554.00;;;10.63;68.53
60479;BME280;46321;48.398;11.754;2023-03-19T08:43:57;96555.13;;;10.69;69.00
60479;BME280;46321;48.398;11.754;2023-03-19T08:46:22;96557.88;;;10.75;68.52
60479;BME280;46321;48.398;11.754;2023-03-19T08:48:47;96550.91;;;10.83;68.47
60479;BME280;46321;48.398;11.754;2023-03-19T08:51:13;96557.03;;;10.83;68.43
60479;BME280;46321;48.398;11.754;2023-03-19T08:53:38;96563.22;;;10.99;68.08
60479;BME280;46321;48.398;11.754;2023-03-19T08:56:05;96561.88;;;11.03;67.77
60479;BME280;46321;48.398;11.754;2023-03-19T08:58:31;96557.41;;;11.04;67.88
60479;BME280;46321;48.398;11.754;2023-03-19T09:01:07;96567.47;;;11.08;67.52
60479;BME280;46321;48.398;11.754;2023-03-19T09:03:35;96564.94;;;11.15;67.61
60479;BME280;46321;48.398;11.754;2023-03-19T09:06:02;96570.88;;;11.17;67.51
60479;BME280;46321;48.398;11.754;2023-03-19T09:08:28;96572.94;;;11.30;67.63
60479;BME280;46321;48.398;11.754;2023-03-19T09:10:54;96580.63;;;11.40;66.97
60479;BME280;46321;48.398;11.754;2023-03-19T09:13:20;96582.69;;;11.53;66.75
60479;BME280;46321;48.398;11.754;2023-03-19T09:15:45;96590.75;;;11.60;67.54
60479;BME280;46321;48.398;11.754;2023-03-19T09:18:11;96599.63;;;11.67;67.50
60479;BME280;46321;48.398;11.754;2023-03-19T09:20:37;96591.59;;;11.76;66.52
60479;BME280;46321;48.398;11.754;2023-03-19T09:23:03;96591.31;;;11.86;66.63
60479;BME280;46321;48.398;11.754;2023-03-19T09:25:28;96582.75;;;11.99;66.61
60479;BME280;46321;48.398;11.754;2023-03-19T09:27:53;96590.75;;;12.14;66.96
60479;BME280;46321;48.398;11.754;2023-03-19T09:30:18;96588.19;;;12.21;66.57
60479;BME280;46321;48.398;11.754;2023-03-19T09:32:44;96592.66;;;12.35;65.63
60479;BME280;46321;48.398;11.754;2023-03-19T09:35:10;96597.72;;;12.45;65.46
60479;BME280;46321;48.398;11.754;2023-03-19T09:37:35;96602.94;;;12.39;65.44
60479;BME280;46321;48.398;11.754;2023-03-19T09:40:00;96601.63;;;12.50;64.94
60479;BME280;46321;48.398;11.754;2023-03-19T09:45:30;96605.38;;;12.55;63.96
60479;BME280;46321;48.398;11.754;2023-03-19T09:48:01;96601.16;;;12.46;63.67
60479;BME280;46321;48.398;11.754;2023-03-19T09:50:30;96608.25;;;12.39;63.76
60479;BME280;46321;48.398;11.754;2023-03-19T09:53:17;96602.34;;;12.58;63.63
60479;BME280;46321;48.398;11.754;2023-03-19T09:55:50;96600.34;;;12.61;63.32
60479;BME280;46321;48.398;11.754;2023-03-19T09:58:19;96601.75;;;12.78;63.26
60479;BME280;46321;48.398;11.754;2023-03-19T10:00:48;96599.56;;;13.04;62.75
60479;BME280;46321;48.398;11.754;2023-03-19T10:08:42;96600.16;;;13.65;61.92
60479;BME280;46321;48.398;11.754;2023-03-19T10:16:48;96614.56;;;14.00;60.51
60479;BME280;46321;48.398;11.754;2023-03-19T10:19:20;96605.69;;;13.92;60.45
60479;BME280;46321;48.398;11.754;2023-03-19T10:21:57;96608.16;;;13.94;60.71
60479;BME280;46321;48.398;11.754;2023-03-19T10:24:32;96605.38;;;14.38;61.67
60479;BME280;46321;48.398;11.754;2023-03-19T10:27:01;96605.84;;;15.04;58.97
60479;BME280;46321;48.398;11.754;2023-03-19T10:29:29;96602.25;;;16.14;58.24
60479;BME280;46321;48.398;11.754;2023-03-19T10:34:49;96602.41;;;19.03;48.78
60479;BME280;46321;48.398;11.754;2023-03-19T10:37:28;96599.13;;;19.19;47.31
60479;BME280;46321;48.398;11.754;2023-03-19T10:39:58;96597.53;;;18.62;47.16
60479;BME280;46321;48.398;11.754;2023-03-19T10:45:26;96596.13;;;18.78;46.60
60479;BME280;46321;48.398;11.754;2023-03-19T10:47:53;96592.84;;;19.07;46.77
60479;BME280;46321;48.398;11.754;2023-03-19T10:50:22;96591.44;;;19.04;45.84
60479;BME280;46321;48.398;11.754;2023-03-19T10:55:31;96588.78;;;18.36;46.96
60479;BME280;46321;48.398;11.754;2023-03-19T10:58:05;96587.66;;;18.25;47.63
60479;BME280;46321;48.398;11.754;2023-03-19T11:00:38;96596.44;;;18.06;48.86
60479;BME280;46321;48.398;11.754;2023-03-19T11:03:10;96598.28;;;17.61;50.00
60479;BME280;46321;48.398;11.754;2023-03-19T11:06:03;96595.72;;;17.73;49.78
60479;BME280;46321;48.398;11.754;2023-03-19T11:08:29;96592.88;;;17.68;50.00
60479;BME280;46321;48.398;11.754;2023-03-19T11:10:54;96590.06;;;17.31;50.14
60479;BME280;46321;48.398;11.754;2023-03-19T11:13:24;96584.16;;;16.76;51.38
60479;BME280;46321;48.398;11.754;2023-03-19T11:15:52;96587.28;;;16.66;51.62
60479;BME280;46321;48.398;11.754;2023-03-19T11:18:21;96582.34;;;16.69;52.01
60479;BME280;46321;48.398;11.754;2023-03-19T11:21:05;96580.94;;;16.53;52.35
60479;BME280;46321;48.398;11.754;2023-03-19T11:23:38;96575.84;;;16.45;52.40
60479;BME280;46321;48.398;11.754;2023-03-19T11:26:04;96582.69;;;16.20;53.75
60479;BME280;46321;48.398;11.754;2023-03-19T11:28:29;96580.88;;;16.00;53.70
60479;BME280;46321;48.398;11.754;2023-03-19T11:31:14;96583.53;;;16.00;53.70
60479;BME280;46321;48.398;11.754;2023-03-19T11:34:07;96573.31;;;15.90;53.45
60479;BME280;46321;48.398;11.754;2023-03-19T11:47:50;96567.53;;;15.19;54.28
60479;BME280;46321;48.398;11.754;2023-03-19T11:50:26;96575.09;;;15.08;54.71
60479;BME280;46321;48.398;11.754;2023-03-19T11:53:18;96575.94;;;15.16;54.51
60479;BME280;46321;48.398;11.754;2023-03-19T11:56:13;96565.44;;;14.94;54.43
60479;BME280;46321;48.398;11.754;2023-03-19T11:59:12;96561.13;;;14.93;54.55
60479;BME280;46321;48.398;11.754;2023-03-19T12:04:44;96543.72;;;14.97;54.81
60479;BME280;46321;48.398;11.754;2023-03-19T12:07:28;96544.13;;;14.94;54.54
60479;BME280;46321;48.398;11.754;2023-03-19T12:12:55;96548.63;;;14.86;54.31
60479;BME280;46321;48.398;11.754;2023-03-19T12:15:38;96550.00;;;14.75;53.88
60479;BME280;46321;48.398;11.754;2023-03-19T12:21:10;96549.09;;;14.54;55.34
60479;BME280;46321;48.398;11.754;2023-03-19T12:24:18;96541.28;;;14.46;54.12
60479;BME280;46321;48.398;11.754;2023-03-19T12:29:49;96540.19;;;14.27;55.86
60479;BME280;46321;48.398;11.754;2023-03-19T12:35:15;96534.38;;;14.65;54.85
60479;BME280;46321;48.398;11.754;2023-03-19T12:40:46;96530.59;;;14.39;55.66
60479;BME280;46321;48.398;11.754;2023-03-19T12:43:20;96518.34;;;14.52;55.82
60479;BME280;46321;48.398;11.754;2023-03-19T12:45:51;96523.94;;;14.71;55.18
60479;BME280;46321;48.398;11.754;2023-03-19T12:48:30;96507.97;;;14.77;54.58
60479;BME280;46321;48.398;11.754;2023-03-19T12:51:04;96515.38;;;14.82;53.77
60479;BME280;46321;48.398;11.754;2023-03-19T12:53:48;96512.25;;;14.72;55.29
60479;BME280;46321;48.398;11.754;2023-03-19T12:57:08;96515.81;;;14.93;54.49
60479;BME280;46321;48.398;11.754;2023-03-19T12:59:20;96521.19;;;15.06;53.83
60479;BME280;46321;48.398;11.754;2023-03-19T13:01:52;96514.81;;;14.87;54.65
60479;BME280;46321;48.398;11.754;2023-03-19T13:04:25;96516.88;;;15.05;54.42
60479;BME280;46321;48.398;11.754;2023-03-19T13:09:27;96511.31;;;14.93;53.72
60479;BME280;46321;48.398;11.754;2023-03-19T13:11:58;96502.50;;;14.99;53.17
60479;BME280;46321;48.398;11.754;2023-03-19T13:17:11;96518.28;;;15.08;53.91
60479;BME280;46321;48.398;11.754;2023-03-19T13:19:45;96513.31;;;14.77;53.55
60479;BME280;46321;48.398;11.754;2023-03-19T13:22:25;96514.81;;;14.94;53.43
60479;BME280;46321;48.398;11.754;2023-03-19T13:24:53;96512.34;;;15.06;53.60
60479;BME280;46321;48.398;11.754;2023-03-19T13:27:29;96507.44;;;15.03;53.77
60479;BME280;46321;48.398;11.754;2023-03-19T13:32:39;96498.59;;;14.88;52.79
60479;BME280;46321;48.398;11.754;2023-03-19T13:35:44;96510.22;;;14.60;53.56
60479;BME280;46321;48.398;11.754;2023-03-19T13:40:52;96510.00;;;14.62;53.67
60479;BME280;46321;48.398;11.754;2023-03-19T13:48:37;96494.94;;;14.27;54.88
60479;BME280;46321;48.398;11.754;2023-03-19T13:56:27;96500.16;;;14.06;55.14
60479;BME280;46321;48.398;11.754;2023-03-19T13:59:23;96492.28;;;13.91;55.46
60479;BME280;46321;48.398;11.754;2023-03-19T14:01:49;96487.75;;;13.85;55.53
60479;BME280;46321;48.398;11.754;2023-03-19T14:04:18;96483.06;;;13.87;56.36
60479;BME280;46321;48.398;11.754;2023-03-19T14:06:47;96490.00;;;13.81;56.16
60479;BME280;46321;48.398;11.754;2023-03-19T14:17:37;96486.75;;;13.86;57.25
60479;BME280;46321;48.398;11.754;2023-03-19T14:22:40;96485.97;;;13.92;55.61
60479;BME280;46321;48.398;11.754;2023-03-19T14:25:22;96487.59;;;13.93;55.61
60479;BME280;46321;48.398;11.754;2023-03-19T14:27:53;96479.22;;;13.96;55.88
60479;BME280;46321;48.398;11.754;2023-03-19T14:30:36;96481.69;;;13.98;55.64